Owosso, MI

9:47 PM EST on December 04, 2016 (GMT -0500)
Owosso

Weather History for KRNP - March, 2013

Change the Weather History Date:

Tuesday, March 12, 2013

  Actual Average (KFNT) Record (KFNT)
Temperature  
Mean Temperature 34 °F 32 °F  
Max Temperature 37 °F 42 °F 75 °F (1990)
Min Temperature 31 °F 23 °F 0 °F (1948)
Degree Days  
Heating Degree Days 31 33  
Month to date heating degree days 414  
Since 1 July heating degree days 5502  
Cooling Degree Days 0 0  
Month to date cooling degree days 0  
Year to date cooling degree days 0  
Moisture  
Dew Point 28 °F    
Average Humidity 77    
Maximum Humidity 89    
Minimum Humidity 57    
Precipitation  
Precipitation 0.00 in 0.06 in 0.74 in (2012)
Month to date precipitation 0.67  
Year to date precipitation 3.78  
Snow  
Snow 0.00 in 0.30 in 4.50 in (2014)
Month to date snowfall 3.3  
Since 1 July snowfall 41.9  
Snow Depth -    
Sea Level Pressure  
Sea Level Pressure 29.79 in    
Wind  
Wind Speed 12 mph (WSW)    
Max Wind Speed 17 mph    
Max Gust Speed 28 mph    
Visibility 10 miles    
Events Rain , Snow    
T = Trace of Precipitation, MM = Missing Value Source: NWS Daily Summary

Daily Weather History Graph

Daily Weather History Graph

Search for Another Location

Airport or City:

Trip Planner

Search our weather history database for the weather conditions in past years. The results will help you decide how hot, cold, wet, or windy it might be!

Date:

Astronomy

Mar. 12, 2013 Rise Set
Actual Time 7:53 AM EDT 7:39 PM EDT
Civil Twilight 7:25 AM EDT 8:07 PM EDT
Nautical Twilight 6:52 AM EDT 8:40 PM EDT
Astronomical Twilight 6:19 AM EDT 9:14 PM EDT
Moon 7:57 AM EDT (3/12) 8:57 PM EDT (3/12)
Length of Visible Light 12h 42m
Length of Day
11h 46m
New Moon, 1% of the Moon is Illuminated
Mar 12
New Moon
Mar 19
First Quarter
Mar 27
Full
Apr 3
Last Quarter
Apr 10
New

Hourly Weather History & Observations

Time (EDT) Temp. Windchill Dew Point Humidity Pressure Visibility Wind Dir Wind Speed Gust Speed Precip Events Conditions
12:15 AM 37.2 °F 28.7 °F 32.0 °F 81% 29.64 in 10.0 mi SW 13.8 mph 20.7 mph N/A   Overcast
12:34 AM 36.9 °F 27.5 °F 32.0 °F 83% 29.65 in 10.0 mi SW 16.1 mph 19.6 mph N/A   Overcast
12:55 AM 36.7 °F 28.4 °F 32.0 °F 83% 29.65 in 10.0 mi SW 12.7 mph 20.7 mph N/A   Overcast
1:14 AM 36.5 °F 29.2 °F 32.0 °F 84% 29.65 in 10.0 mi SW 10.4 mph 20.7 mph N/A   Overcast
1:34 AM 36.5 °F 29.2 °F 32.0 °F 84% 29.67 in 10.0 mi SW 10.4 mph 16.1 mph N/A   Overcast
2:14 AM 36.1 °F 27.7 °F 32.0 °F 85% 29.68 in 10.0 mi SW 12.7 mph 18.4 mph N/A   Overcast
2:35 AM 35.8 °F 28.3 °F 32.2 °F 87% 29.68 in 10.0 mi SW 10.4 mph - N/A   Overcast
2:55 AM 36.0 °F 29.0 °F 32.4 °F 87% 29.69 in 10.0 mi SW 9.2 mph - N/A   Overcast
3:14 AM 35.8 °F 27.3 °F 32.2 °F 87% 29.69 in 10.0 mi SW 12.7 mph 17.3 mph N/A   Overcast
3:35 AM 35.6 °F 27.5 °F 32.0 °F 87% 29.69 in 10.0 mi SW 11.5 mph - N/A   Overcast
3:55 AM 35.6 °F 27.1 °F 32.2 °F 87% 29.69 in 10.0 mi SW 12.7 mph 19.6 mph N/A   Overcast
4:14 AM 35.2 °F 28.1 °F 32.0 °F 88% 29.69 in 7.0 mi SW 9.2 mph - N/A   Overcast
4:35 AM 35.2 °F 27.1 °F 32.2 °F 89% 29.69 in 10.0 mi SW 11.5 mph 16.1 mph N/A   Overcast
4:55 AM 35.2 °F 27.6 °F 32.0 °F 88% 29.69 in 10.0 mi SW 10.4 mph 17.3 mph N/A   Overcast
5:14 AM 35.2 °F 28.1 °F 32.0 °F 88% 29.69 in 10.0 mi SW 9.2 mph - N/A   Overcast
5:35 AM 35.1 °F 25.5 °F 32.0 °F 89% 29.70 in 10.0 mi SW 15.0 mph 18.4 mph N/A   Drizzle
5:54 AM 35.2 °F 27.6 °F 31.5 °F 86% 29.71 in 10.0 mi WSW 10.4 mph - N/A   Overcast
6:15 AM 35.1 °F 27.4 °F 31.1 °F 85% 29.73 in 10.0 mi WSW 10.4 mph 16.1 mph N/A   Overcast
6:34 AM 34.0 °F 23.4 °F 30.6 °F 87% 29.74 in 1.8 mi West 17.3 mph 27.6 mph N/A Snow Light Snow
6:54 AM 34.0 °F 23.8 °F 30.7 °F 88% 29.75 in 10.0 mi WSW 16.1 mph 21.9 mph N/A   Overcast
7:15 AM 34.2 °F 24.8 °F 30.0 °F 85% 29.75 in 10.0 mi WSW 13.8 mph 19.6 mph N/A   Overcast
7:34 AM 34.0 °F 26.6 °F 29.3 °F 83% 29.76 in 10.0 mi WSW 9.2 mph - N/A   Overcast
7:55 AM 33.8 °F 25.3 °F 28.4 °F 81% 29.76 in 10.0 mi WSW 11.5 mph 17.3 mph N/A   Overcast
8:15 AM 33.8 °F 25.8 °F 28.4 °F 81% 29.76 in 10.0 mi WSW 10.4 mph - N/A   Overcast
8:34 AM 33.8 °F 25.3 °F 28.2 °F 80% 29.77 in 10.0 mi WSW 11.5 mph 17.3 mph N/A   Overcast
8:55 AM 33.8 °F 25.3 °F 28.4 °F 81% 29.78 in 10.0 mi WSW 11.5 mph - N/A   Overcast
9:15 AM 33.8 °F 24.3 °F 28.4 °F 81% 29.79 in 10.0 mi WSW 13.8 mph 18.4 mph N/A   Overcast
9:34 AM 33.6 °F 25.0 °F 28.6 °F 82% 29.79 in 10.0 mi WSW 11.5 mph - N/A Snow Light Snow
9:55 AM 33.3 °F 23.2 °F 27.5 °F 79% 29.80 in 7.0 mi WSW 15.0 mph 23.0 mph N/A Snow Light Snow
10:14 AM 33.4 °F 23.5 °F 27.0 °F 77% 29.80 in 10.0 mi WSW 15.0 mph 19.6 mph N/A   Overcast
10:35 AM 33.3 °F 24.1 °F 26.6 °F 77% 29.81 in 10.0 mi West 12.7 mph 19.6 mph N/A Snow Light Snow
10:54 AM 33.4 °F 24.8 °F 27.1 °F 78% 29.81 in 7.0 mi West 11.5 mph - N/A Snow Light Snow
11:14 AM 34.2 °F 27.5 °F 27.3 °F 76% 29.81 in 10.0 mi WSW 8.1 mph - N/A   Overcast
11:35 AM 34.7 °F 25.5 °F 26.2 °F 71% 29.81 in 10.0 mi WSW 13.8 mph 18.4 mph N/A   Overcast
11:54 AM 34.7 °F 25.5 °F 25.9 °F 70% 29.81 in 10.0 mi West 13.8 mph 19.6 mph N/A   Overcast
12:15 PM 34.0 °F 25.0 °F 26.2 °F 73% 29.81 in 10.0 mi West 12.7 mph 17.3 mph N/A   Overcast
12:34 PM 34.3 °F 25.9 °F 27.0 °F 74% 29.82 in 10.0 mi West 11.5 mph - N/A   Overcast
12:55 PM 35.2 °F 27.1 °F 28.2 °F 76% 29.82 in 10.0 mi West 11.5 mph 18.4 mph N/A   Mostly Cloudy
1:15 PM 37.4 °F 28.2 °F 27.3 °F 67% 29.82 in 10.0 mi West 16.1 mph 19.6 mph N/A   Mostly Cloudy
1:34 PM 37.4 °F 29.3 °F 25.0 °F 61% 29.82 in 10.0 mi West 12.7 mph - N/A   Overcast
1:55 PM 37.8 °F 29.0 °F 24.8 °F 60% 29.82 in 10.0 mi WSW 15.0 mph 21.9 mph N/A Snow Light Snow
2:15 PM 37.2 °F 28.7 °F 23.4 °F 57% 29.82 in 10.0 mi WSW 13.8 mph 19.6 mph N/A   Overcast
2:34 PM 36.7 °F 27.2 °F 23.4 °F 59% 29.82 in 10.0 mi West 16.1 mph 20.7 mph N/A Snow Light Snow
2:55 PM 36.9 °F 28.2 °F 23.0 °F 57% 29.82 in 10.0 mi WSW 13.8 mph 21.9 mph N/A   Overcast
3:14 PM 36.7 °F 27.2 °F 23.2 °F 58% 29.81 in 10.0 mi SW 16.1 mph - N/A   Overcast
3:34 PM 36.0 °F 27.5 °F 24.4 °F 63% 29.81 in 10.0 mi SW 12.7 mph 20.7 mph N/A   Overcast
3:55 PM 34.9 °F 26.6 °F 27.5 °F 74% 29.82 in 7.0 mi West 11.5 mph - N/A   Overcast
4:14 PM 35.1 °F 24.8 °F 27.1 °F 73% 29.82 in 10.0 mi West 17.3 mph 23.0 mph N/A Rain Light Rain
4:35 PM 34.3 °F 25.5 °F 26.2 °F 72% 29.83 in 10.0 mi West 12.7 mph - N/A   Overcast
4:54 PM 34.7 °F 26.9 °F 27.3 °F 74% 29.83 in 10.0 mi West 10.4 mph - N/A   Overcast
5:15 PM 34.2 °F 24.0 °F 27.3 °F 76% 29.83 in 10.0 mi WSW 16.1 mph - N/A   Overcast
5:35 PM 34.2 °F 25.7 °F 27.1 °F 75% 29.84 in 10.0 mi WSW 11.5 mph 19.6 mph N/A   Overcast
5:54 PM 34.2 °F 24.8 °F 25.7 °F 71% 29.84 in 10.0 mi WSW 13.8 mph 19.6 mph N/A Rain Light Rain
6:15 PM 33.6 °F 24.1 °F 25.7 °F 73% 29.85 in 10.0 mi SW 13.8 mph - N/A Snow Light Snow
6:35 PM 33.4 °F 23.1 °F 24.4 °F 70% 29.85 in 10.0 mi WSW 16.1 mph 19.6 mph N/A   Light Drizzle
6:54 PM 33.3 °F 23.2 °F 23.5 °F 68% 29.86 in 10.0 mi WSW 15.0 mph 18.4 mph N/A   Overcast
7:15 PM 33.3 °F 27.1 °F 23.0 °F 66% 29.86 in 10.0 mi WSW 6.9 mph - N/A   Overcast
7:34 PM 33.1 °F 26.1 °F 23.0 °F 66% 29.86 in 10.0 mi WSW 8.1 mph - N/A   Light Drizzle
7:55 PM 32.9 °F 24.7 °F 23.4 °F 68% 29.87 in 10.0 mi WSW 10.4 mph 18.4 mph N/A Snow Light Snow
8:15 PM 32.2 °F 23.2 °F 25.0 °F 75% 29.88 in 5.0 mi WSW 11.5 mph - N/A Snow Light Snow
8:34 PM 32.0 °F 25.6 °F 25.7 °F 78% 29.88 in 10.0 mi WSW 6.9 mph - N/A   Overcast
8:55 PM 32.0 °F 23.6 °F 24.8 °F 75% 29.88 in 10.0 mi WSW 10.4 mph - N/A Rain Light Rain
9:14 PM 31.8 °F 22.8 °F 24.6 °F 75% 29.88 in 10.0 mi WSW 11.5 mph 18.4 mph N/A   Mostly Cloudy
9:35 PM 31.6 °F 26.0 °F 24.8 °F 76% 29.88 in 10.0 mi WSW 5.8 mph - N/A   Scattered Clouds
9:55 PM 31.6 °F 26.0 °F 25.3 °F 78% 29.88 in 10.0 mi SW 5.8 mph - N/A   Overcast
10:14 PM 31.6 °F 25.1 °F 25.7 °F 79% 29.88 in 10.0 mi SW 6.9 mph - N/A   Overcast
10:35 PM 31.1 °F 23.1 °F 25.5 °F 80% 29.88 in 10.0 mi SW 9.2 mph - N/A   Mostly Cloudy
10:55 PM 31.1 °F 27.7 °F 25.5 °F 80% 29.87 in 10.0 mi SW 3.5 mph - N/A   Mostly Cloudy
11:14 PM 31.1 °F 27.7 °F 25.7 °F 80% 29.87 in 10.0 mi SW 3.5 mph - N/A   Overcast
11:35 PM 31.1 °F 27.7 °F 25.5 °F 80% 29.87 in 10.0 mi SW 3.5 mph - N/A   Overcast
11:55 PM 31.6 °F - 25.5 °F 78% 29.87 in 10.0 mi Calm Calm - N/A   Overcast